Time;durP1;ratioP1;P1;durP2;ratioP2;P2;SDS_P1;SDS_P2;PMS_P1;PMS_P2;Temp;Humidity;BMP_temperature;BMP_pressure;BME280_temperature;BME280_humidity;BME280_pressure;Samples;Min_cycle;Max_cycle;Signal;HPM_P1;HPM_P2
2022/10/09 00:00:20;;;;;;;35.38;24.50;;;16.90;76.80;;;;;;5114045;28;20371;-16
2022/10/09 00:02:46;;;;;;;33.72;22.90;;;16.90;76.70;;;;;;5112467;28;20500;-16
2022/10/09 00:05:12;;;;;;;32.15;21.50;;;16.90;76.80;;;;;;5113677;28;20024;-15
2022/10/09 00:07:37;;;;;;;29.17;21.23;;;16.90;76.90;;;;;;5113892;28;20066;-15
2022/10/09 00:10:04;;;;;;;33.38;22.45;;;16.90;76.90;;;;;;5113650;28;20428;-15
2022/10/09 00:12:29;;;;;;;29.65;21.85;;;16.80;76.90;;;;;;5113687;28;20489;-15
2022/10/09 00:14:55;;;;;;;29.55;21.15;;;16.80;77.00;;;;;;5113532;28;20049;-15
2022/10/09 00:17:21;;;;;;;36.30;24.40;;;16.80;77.00;;;;;;5113590;28;20026;-15
2022/10/09 00:19:47;;;;;;;29.17;20.63;;;16.70;77.10;;;;;;5113678;28;20088;-15
2022/10/09 00:22:13;;;;;;;39.30;24.45;;;16.70;77.10;;;;;;5113431;28;20032;-15
2022/10/09 00:24:39;;;;;;;29.08;20.75;;;16.60;77.50;;;;;;5112613;28;20031;-15
2022/10/09 00:27:04;;;;;;;30.25;20.95;;;16.60;77.70;;;;;;5113221;28;20036;-17
2022/10/09 00:29:30;;;;;;;30.75;20.63;;;16.50;77.30;;;;;;5113729;28;20051;-15
2022/10/09 00:31:56;;;;;;;38.58;24.13;;;16.50;77.50;;;;;;5113774;28;20544;-14
2022/10/09 00:34:22;;;;;;;30.45;20.45;;;16.50;77.70;;;;;;5113373;28;20043;-15
2022/10/09 00:36:47;;;;;;;33.15;21.00;;;16.50;77.60;;;;;;5113179;28;20066;-15
2022/10/09 00:39:13;;;;;;;30.45;20.98;;;16.40;77.60;;;;;;5113593;28;20027;-15
2022/10/09 00:41:40;;;;;;;29.98;21.02;;;16.40;77.60;;;;;;5113379;28;20511;-16
2022/10/09 00:44:43;;;;;;;32.25;21.45;;;16.40;77.70;;;;;;5113345;28;20034;-15
2022/10/09 00:47:22;;;;;;;27.33;19.20;;;16.30;77.70;;;;;;5112994;28;20035;-15
2022/10/09 00:49:51;;;;;;;28.17;19.73;;;16.30;77.70;;;;;;5113976;28;20024;-16
2022/10/09 00:52:19;;;;;;;35.22;24.05;;;16.30;77.70;;;;;;5114723;28;20383;-16
2022/10/09 00:54:46;;;;;;;29.00;20.00;;;16.30;77.90;;;;;;5117536;28;20027;-16
2022/10/09 00:57:12;;;;;;;24.75;17.48;;;16.20;77.90;;;;;;5117542;28;20028;-15
2022/10/09 00:59:39;;;;;;;31.92;22.92;;;16.20;77.90;;;;;;5117177;28;20096;-15
2022/10/09 01:02:05;;;;;;;31.35;21.75;;;16.20;78.10;;;;;;5117470;28;20055;-17
2022/10/09 01:04:31;;;;;;;31.00;21.00;;;16.20;78.10;;;;;;5117058;27;20043;-16
2022/10/09 01:07:28;;;;;;;31.45;23.33;;;16.20;78.00;;;;;;5117068;28;20495;-15
2022/10/09 01:09:54;;;;;;;36.20;23.55;;;16.20;78.30;;;;;;5117322;28;20024;-15
2022/10/09 01:12:26;;;;;;;36.08;25.13;;;16.20;78.30;;;;;;5117174;28;20023;-16
2022/10/09 01:15:06;;;;;;;36.70;24.02;;;16.20;78.30;;;;;;5115386;28;20024;-16
2022/10/09 01:18:19;;;;;;;32.45;20.67;;;16.20;78.40;;;;;;5117351;28;20509;-15
2022/10/09 01:20:57;;;;;;;31.05;20.20;;;16.30;78.40;;;;;;5080077;28;20027;-15
2022/10/09 01:23:42;;;;;;;31.55;21.92;;;16.20;78.30;;;;;;5116740;28;20027;-14
2022/10/09 01:26:40;;;;;;;34.90;22.48;;;16.30;78.30;;;;;;5116720;28;20024;-17
2022/10/09 01:29:09;;;;;;;37.72;25.38;;;16.30;78.40;;;;;;5071019;28;20047;-16
2022/10/09 01:31:39;;;;;;;25.63;16.95;;;16.20;78.70;;;;;;5116894;28;20027;-16
2022/10/09 01:34:07;;;;;;;31.92;19.98;;;16.20;78.40;;;;;;5116556;27;20044;-16
2022/10/09 01:36:38;;;;;;;31.92;21.60;;;16.20;78.30;;;;;;5116494;28;20075;-16
2022/10/09 01:39:07;;;;;;;37.42;25.33;;;16.20;78.30;;;;;;5116732;28;20020;-16
2022/10/09 01:41:34;;;;;;;61.95;36.72;;;16.20;78.60;;;;;;5116566;28;20145;-15
2022/10/09 01:44:00;;;;;;;41.13;25.55;;;16.20;78.70;;;;;;5116629;28;20035;-15
2022/10/09 01:46:32;;;;;;;36.08;23.35;;;16.10;78.90;;;;;;5116573;28;20032;-16
2022/10/09 01:49:23;;;;;;;41.70;26.05;;;16.10;78.90;;;;;;5115902;28;20030;-16
2022/10/09 01:52:15;;;;;;;36.85;23.83;;;16.00;79.10;;;;;;5116439;28;20020;-16
2022/10/09 01:55:03;;;;;;;31.92;20.80;;;16.00;79.30;;;;;;5105080;28;20038;-15
2022/10/09 01:57:58;;;;;;;32.63;20.70;;;15.90;79.20;;;;;;5116140;28;20028;-15
2022/10/09 02:00:25;;;;;;;31.15;20.30;;;15.90;79.30;;;;;;5116367;28;20035;-17
2022/10/09 02:02:53;;;;;;;28.33;19.75;;;15.90;79.30;;;;;;5116252;28;20131;-16
2022/10/09 02:05:23;;;;;;;37.80;23.27;;;15.80;79.30;;;;;;5113879;28;20020;-15
2022/10/09 02:07:49;;;;;;;30.50;20.30;;;15.80;79.20;;;;;;5116082;28;20114;-15
2022/10/09 02:10:17;;;;;;;33.35;21.77;;;15.70;79.30;;;;;;5116102;28;20526;-15
2022/10/09 02:12:49;;;;;;;33.55;21.83;;;15.70;79.50;;;;;;5116270;28;20035;-15
2022/10/09 02:15:16;;;;;;;30.50;19.80;;;15.60;79.50;;;;;;5116443;28;20063;-16
2022/10/09 02:17:46;;;;;;;26.80;18.40;;;15.60;79.60;;;;;;5114830;28;20027;-15
2022/10/09 02:20:24;;;;;;;29.23;20.13;;;15.60;79.60;;;;;;5114523;28;20068;-15
2022/10/09 02:22:52;;;;;;;29.98;19.30;;;15.60;79.70;;;;;;5115877;27;20020;-15
2022/10/09 02:25:19;;;;;;;31.67;20.58;;;15.50;79.60;;;;;;5115636;28;20016;-15
2022/10/09 02:27:46;;;;;;;30.33;19.52;;;15.50;79.70;;;;;;5115380;28;20087;-15
2022/10/09 02:30:14;;;;;;;27.40;18.75;;;15.50;79.50;;;;;;5115448;28;20028;-15
2022/10/09 02:32:40;;;;;;;24.02;17.73;;;15.50;79.40;;;;;;5115394;28;20043;-15
2022/10/09 02:35:08;;;;;;;18.02;12.82;;;15.40;79.50;;;;;;5114926;28;20392;-15
2022/10/09 02:37:34;;;;;;;17.42;12.48;;;15.40;79.50;;;;;;5116248;28;20020;-15
2022/10/09 02:40:00;;;;;;;19.83;13.43;;;15.30;79.40;;;;;;5115562;28;20046;-15
2022/10/09 02:42:26;;;;;;;18.02;12.27;;;15.30;79.40;;;;;;5115513;28;20021;-15
2022/10/09 02:44:52;;;;;;;35.25;14.50;;;15.30;79.50;;;;;;5115018;28;20030;-15
2022/10/09 02:47:18;;;;;;;21.70;15.68;;;15.30;79.40;;;;;;5114941;28;20027;-15
2022/10/09 02:49:44;;;;;;;26.02;17.73;;;15.20;79.40;;;;;;5115304;28;20024;-15
2022/10/09 02:52:09;;;;;;;25.15;17.63;;;15.20;79.70;;;;;;5115340;28;20031;-15
2022/10/09 02:54:35;;;;;;;88.50;21.38;;;15.20;79.80;;;;;;5114932;27;20028;-15
2022/10/09 02:57:01;;;;;;;31.60;18.80;;;15.10;80.00;;;;;;5114690;28;20383;-16
2022/10/09 02:59:27;;;;;;;27.88;19.52;;;15.00;80.00;;;;;;5115587;28;20055;-14
2022/10/09 03:01:54;;;;;;;28.55;20.80;;;15.00;80.00;;;;;;5115114;28;20471;-15
2022/10/09 03:04:20;;;;;;;29.58;19.63;;;14.90;80.20;;;;;;5114935;27;20027;-16
2022/10/09 03:06:46;;;;;;;23.63;17.17;;;14.90;80.00;;;;;;5115248;28;20490;-15
2022/10/09 03:09:12;;;;;;;27.52;18.05;;;14.80;80.20;;;;;;5114471;28;20065;-15
2022/10/09 03:11:38;;;;;;;26.95;18.02;;;14.80;80.20;;;;;;5114855;28;20035;-16
2022/10/09 03:14:04;;;;;;;30.05;18.88;;;14.80;80.20;;;;;;5114576;28;20027;-15
2022/10/09 03:16:30;;;;;;;23.02;15.65;;;14.70;80.20;;;;;;5114268;28;20030;-16
2022/10/09 03:18:57;;;;;;;25.42;17.80;;;14.80;80.20;;;;;;5114177;28;20012;-15
2022/10/09 03:21:25;;;;;;;23.73;17.23;;;14.80;80.20;;;;;;5114731;28;20475;-16
2022/10/09 03:23:52;;;;;;;23.20;16.67;;;14.70;80.10;;;;;;5114651;28;20035;-17
2022/10/09 03:26:21;;;;;;;21.25;15.57;;;14.70;80.10;;;;;;5114347;28;20081;-16
2022/10/09 03:28:49;;;;;;;21.17;14.32;;;14.70;80.00;;;;;;5114051;28;20031;-15
2022/10/09 03:31:16;;;;;;;21.05;15.38;;;14.70;79.90;;;;;;5114794;28;20093;-15
2022/10/09 03:33:42;;;;;;;20.23;13.00;;;14.70;79.80;;;;;;5114007;28;20023;-16
2022/10/09 03:36:09;;;;;;;24.83;16.70;;;14.60;79.80;;;;;;5114771;28;20114;-15
2022/10/09 03:38:35;;;;;;;23.98;17.80;;;14.60;79.80;;;;;;5113987;28;20356;-16
2022/10/09 03:41:03;;;;;;;24.75;18.17;;;14.70;80.10;;;;;;5114252;28;20048;-15
2022/10/09 03:43:29;;;;;;;23.50;17.40;;;14.60;80.20;;;;;;5114036;28;20102;-15
2022/10/09 03:45:55;;;;;;;21.88;14.93;;;14.60;80.00;;;;;;5112781;28;20110;-15
2022/10/09 03:48:21;;;;;;;18.17;12.57;;;14.60;79.90;;;;;;5114252;28;20027;-14
2022/10/09 03:50:48;;;;;;;21.48;16.08;;;14.60;79.90;;;;;;5113956;28;20022;-16
2022/10/09 03:53:14;;;;;;;19.52;15.23;;;14.60;80.10;;;;;;5114157;28;20027;-15
2022/10/09 03:55:41;;;;;;;20.73;15.52;;;14.60;80.20;;;;;;5114140;28;20039;-16
2022/10/09 03:58:08;;;;;;;20.67;15.13;;;14.50;80.30;;;;;;5114181;28;20506;-15
2022/10/09 04:00:35;;;;;;;19.70;14.60;;;14.50;80.30;;;;;;5113944;28;20387;-15
2022/10/09 04:03:02;;;;;;;18.27;13.80;;;14.40;80.20;;;;;;5113417;28;20516;-15
2022/10/09 04:05:29;;;;;;;22.38;16.92;;;14.40;80.30;;;;;;5113987;28;20020;-15
2022/10/09 04:07:55;;;;;;;19.65;14.90;;;14.40;80.40;;;;;;5113712;28;20487;-16
2022/10/09 04:10:21;;;;;;;19.08;13.77;;;14.40;80.40;;;;;;5113961;28;20031;-16
2022/10/09 04:12:46;;;;;;;17.88;14.30;;;14.40;80.30;;;;;;5113468;28;20379;-21
2022/10/09 04:15:13;;;;;;;17.27;13.05;;;14.40;80.30;;;;;;5114285;28;20106;-16
2022/10/09 04:17:38;;;;;;;18.33;13.38;;;14.40;80.30;;;;;;5114198;28;20031;-16
2022/10/09 04:20:05;;;;;;;21.85;16.35;;;14.40;80.40;;;;;;5112952;28;20019;-15
2022/10/09 04:22:31;;;;;;;19.20;14.90;;;14.40;80.40;;;;;;5113417;28;20119;-17
2022/10/09 04:24:57;;;;;;;20.60;15.45;;;14.40;80.30;;;;;;5113623;28;20103;-16
2022/10/09 04:27:23;;;;;;;18.90;14.63;;;14.40;80.30;;;;;;5115258;28;20543;-16
2022/10/09 04:29:48;;;;;;;22.45;16.23;;;14.30;80.40;;;;;;5118126;28;20379;-16
2022/10/09 04:32:14;;;;;;;17.65;13.73;;;14.30;80.60;;;;;;5117724;28;20027;-17
2022/10/09 04:34:40;;;;;;;17.02;12.93;;;14.30;80.70;;;;;;5117443;28;20055;-15
2022/10/09 04:37:06;;;;;;;15.68;11.73;;;14.30;80.50;;;;;;5117501;28;20292;-15
2022/10/09 04:39:32;;;;;;;19.77;13.77;;;14.30;80.40;;;;;;5117643;28;20102;-15
2022/10/09 04:41:57;;;;;;;19.55;14.27;;;14.20;80.40;;;;;;5117566;28;20387;-14
2022/10/09 04:44:23;;;;;;;27.08;20.33;;;14.30;80.50;;;;;;5117744;28;20027;-16
2022/10/09 04:46:50;;;;;;;25.45;17.80;;;14.30;80.70;;;;;;5117160;28;20036;-15
2022/10/09 04:49:17;;;;;;;27.85;20.33;;;14.20;80.60;;;;;;5117616;28;20039;-14
2022/10/09 04:51:43;;;;;;;32.40;19.88;;;14.20;80.50;;;;;;5117292;28;20531;-15
2022/10/09 04:54:11;;;;;;;22.02;16.35;;;14.20;80.60;;;;;;5117475;28;20027;-14
2022/10/09 04:56:37;;;;;;;22.17;15.90;;;14.10;80.70;;;;;;5117489;28;20103;-15
2022/10/09 04:59:03;;;;;;;20.90;14.95;;;14.10;80.80;;;;;;5117910;28;20122;-17
2022/10/09 05:01:31;;;;;;;19.13;14.38;;;14.00;80.80;;;;;;5117475;28;20015;-15
2022/10/09 05:03:57;;;;;;;18.48;13.50;;;14.10;80.90;;;;;;5117433;28;20027;-15
2022/10/09 05:06:24;;;;;;;16.58;12.75;;;14.00;81.10;;;;;;5115851;28;20467;-15
2022/10/09 05:08:50;;;;;;;20.33;14.98;;;14.10;80.90;;;;;;5116964;28;20019;-15
2022/10/09 05:11:22;;;;;;;20.15;14.50;;;14.10;80.90;;;;;;5115805;28;20114;-15
2022/10/09 05:13:51;;;;;;;18.08;14.50;;;14.10;81.00;;;;;;5116954;28;20024;-15
2022/10/09 05:16:20;;;;;;;19.73;13.65;;;14.10;81.10;;;;;;5116868;28;20395;-15
2022/10/09 05:18:50;;;;;;;18.92;13.60;;;14.10;81.00;;;;;;5116842;28;20374;-16
2022/10/09 05:21:16;;;;;;;19.83;15.38;;;14.10;81.00;;;;;;5116892;28;20471;-15
2022/10/09 05:23:43;;;;;;;16.08;12.20;;;14.10;81.20;;;;;;5116733;28;20020;-14
2022/10/09 05:26:13;;;;;;;16.30;12.27;;;14.10;81.10;;;;;;5116911;28;20027;-15
2022/10/09 05:28:39;;;;;;;28.73;21.27;;;14.10;81.10;;;;;;5116891;28;20035;-15
2022/10/09 05:31:07;;;;;;;20.70;14.85;;;14.10;81.10;;;;;;5116354;28;20053;-16
2022/10/09 05:33:33;;;;;;;20.73;15.13;;;14.10;81.00;;;;;;5116895;28;20102;-13
2022/10/09 05:36:02;;;;;;;20.58;15.63;;;14.10;81.00;;;;;;5116367;28;20100;-15
2022/10/09 05:38:29;;;;;;;30.38;21.08;;;14.10;81.00;;;;;;5115021;28;20024;-15
2022/10/09 05:41:05;;;;;;;21.02;15.57;;;14.20;81.10;;;;;;5116067;28;20020;-15
2022/10/09 05:43:34;;;;;;;23.90;16.27;;;14.20;81.10;;;;;;5115237;28;20020;-16
2022/10/09 05:46:15;;;;;;;17.48;13.48;;;14.20;81.30;;;;;;5116666;28;20192;-15
2022/10/09 05:48:44;;;;;;;21.58;15.23;;;14.30;81.10;;;;;;5116344;28;20039;-15
2022/10/09 05:51:19;;;;;;;21.38;14.95;;;14.30;81.20;;;;;;5116388;28;20019;-14
2022/10/09 05:53:46;;;;;;;21.70;15.35;;;14.40;81.10;;;;;;5116569;28;20115;-16
2022/10/09 05:56:15;;;;;;;26.20;16.63;;;14.40;81.10;;;;;;5116434;28;20024;-18
2022/10/09 05:58:42;;;;;;;39.28;26.23;;;14.50;81.00;;;;;;5116392;28;20023;-15
2022/10/09 06:01:09;;;;;;;24.70;18.23;;;14.60;81.40;;;;;;5115955;28;20023;-16
2022/10/09 06:03:36;;;;;;;24.40;15.93;;;14.60;81.10;;;;;;5115336;28;20542;-15
2022/10/09 06:06:06;;;;;;;49.92;35.75;;;14.70;81.10;;;;;;5116281;27;20042;-16
2022/10/09 06:08:34;;;;;;;61.60;45.03;;;14.80;80.90;;;;;;5115951;28;20027;-17
2022/10/09 06:11:15;;;;;;;35.17;26.50;;;14.90;81.00;;;;;;5115806;28;20031;-15
2022/10/09 06:13:42;;;;;;;35.95;27.75;;;15.00;81.10;;;;;;5116465;28;20111;-15
2022/10/09 06:16:11;;;;;;;31.50;24.50;;;15.10;81.30;;;;;;5114471;28;20020;-16
2022/10/09 06:18:41;;;;;;;43.47;29.48;;;15.30;81.20;;;;;;5115690;28;20490;-16
2022/10/09 06:21:08;;;;;;;41.80;30.95;;;15.40;81.50;;;;;;5115503;27;20030;-15
2022/10/09 06:23:35;;;;;;;23.63;18.58;;;15.60;81.30;;;;;;5115725;28;20417;-15
2022/10/09 06:26:05;;;;;;;24.80;19.13;;;15.70;81.30;;;;;;5114202;28;20114;-16
2022/10/09 06:28:33;;;;;;;36.33;23.10;;;15.90;81.00;;;;;;5115726;28;20039;-15
2022/10/09 06:31:09;;;;;;;32.13;21.75;;;16.10;81.00;;;;;;5115590;28;20031;-15
2022/10/09 06:33:38;;;;;;;29.35;22.13;;;16.30;80.80;;;;;;5115396;28;20020;-17
2022/10/09 06:36:12;;;;;;;23.02;16.23;;;16.60;81.00;;;;;;5115383;28;20032;-15
2022/10/09 06:38:39;;;;;;;24.38;17.55;;;16.80;80.60;;;;;;5115590;28;20032;-15
2022/10/09 06:41:07;;;;;;;22.88;17.48;;;17.10;80.90;;;;;;5115180;28;20027;-15
2022/10/09 06:43:34;;;;;;;26.60;19.02;;;17.40;80.00;;;;;;5115224;28;20020;-16
2022/10/09 06:46:04;;;;;;;22.48;17.00;;;17.60;80.20;;;;;;5115234;28;20035;-15
2022/10/09 06:48:32;;;;;;;23.33;15.77;;;17.80;79.40;;;;;;5115412;28;20414;-16
2022/10/09 06:51:06;;;;;;;16.30;13.02;;;17.90;78.90;;;;;;5114329;28;20360;-18
2022/10/09 06:53:37;;;;;;;24.08;15.50;;;18.20;78.70;;;;;;5113779;28;20061;-16
2022/10/09 06:56:04;;;;;;;18.30;14.80;;;18.40;77.50;;;;;;5113672;28;20048;-15
2022/10/09 06:58:30;;;;;;;16.83;13.38;;;18.60;76.40;;;;;;5115255;28;20456;-14
2022/10/09 07:01:12;;;;;;;17.73;12.15;;;18.70;75.90;;;;;;5114650;28;20024;-16
2022/10/09 07:03:40;;;;;;;15.68;10.25;;;18.90;75.00;;;;;;5114902;28;20032;-14
2022/10/09 07:06:10;;;;;;;18.55;10.95;;;19.10;74.20;;;;;;5114734;28;20118;-15
2022/10/09 07:08:38;;;;;;;14.18;9.52;;;19.40;73.00;;;;;;5115469;28;20023;-15
2022/10/09 07:11:14;;;;;;;13.73;8.85;;;19.70;71.70;;;;;;5114773;28;20027;-17
2022/10/09 07:13:42;;;;;;;18.70;9.77;;;19.90;70.50;;;;;;5114925;28;20122;-15
2022/10/09 07:16:10;;;;;;;13.82;8.32;;;20.30;70.90;;;;;;5113741;28;20098;-15
2022/10/09 07:18:37;;;;;;;18.17;8.57;;;20.60;67.10;;;;;;5114507;28;20069;-14
2022/10/09 07:21:06;;;;;;;13.15;8.38;;;20.90;66.50;;;;;;5114256;28;20027;-15
2022/10/09 07:23:34;;;;;;;13.25;7.70;;;21.10;65.90;;;;;;5114292;28;20058;-14
2022/10/09 07:26:00;;;;;;;11.82;7.55;;;21.00;63.50;;;;;;5114701;28;20027;-16
2022/10/09 07:28:28;;;;;;;14.38;7.82;;;21.10;63.60;;;;;;5114574;28;20091;-14
2022/10/09 07:30:55;;;;;;;11.40;7.30;;;21.30;65.10;;;;;;5114192;28;20020;-14
2022/10/09 07:33:21;;;;;;;11.45;7.53;;;21.30;63.20;;;;;;5114701;28;20062;-15
2022/10/09 07:35:58;;;;;;;15.30;7.75;;;21.20;63.00;;;;;;5114012;28;20400;-16
2022/10/09 07:38:25;;;;;;;10.55;7.32;;;21.10;62.50;;;;;;5114415;28;20032;-14
2022/10/09 07:40:52;;;;;;;12.80;7.55;;;20.90;64.70;;;;;;5112883;28;20024;-14
2022/10/09 07:43:21;;;;;;;11.48;7.38;;;20.90;65.50;;;;;;5114378;28;20024;-14
2022/10/09 07:45:47;;;;;;;10.68;7.18;;;20.90;64.70;;;;;;5114516;28;20019;-16
2022/10/09 07:48:13;;;;;;;11.68;7.55;;;20.80;63.60;;;;;;5114545;28;20036;-14
2022/10/09 07:50:39;;;;;;;13.57;7.38;;;20.90;64.30;;;;;;5114308;28;20035;-15
2022/10/09 07:53:05;;;;;;;9.73;7.38;;;20.90;65.60;;;;;;5113935;28;20027;-14
2022/10/09 07:55:31;;;;;;;12.00;6.93;;;21.00;65.00;;;;;;5114246;28;20019;-15
2022/10/09 07:57:56;;;;;;;13.65;7.55;;;21.20;65.60;;;;;;5113856;28;20076;-15
2022/10/09 08:00:22;;;;;;;13.00;7.43;;;21.10;64.00;;;;;;5114112;28;20026;-16
2022/10/09 08:02:48;;;;;;;10.98;7.82;;;21.20;63.90;;;;;;5112703;28;20063;-15
2022/10/09 08:05:15;;;;;;;10.73;6.97;;;21.20;65.00;;;;;;5114091;28;20076;-15
2022/10/09 08:07:40;;;;;;;11.07;7.88;;;21.30;65.10;;;;;;5112330;28;20028;-15
2022/10/09 08:10:07;;;;;;;14.25;7.80;;;21.40;64.30;;;;;;5113752;28;20081;-15
2022/10/09 08:12:33;;;;;;;10.60;7.28;;;21.30;63.60;;;;;;5113916;28;20023;-15
2022/10/09 08:14:59;;;;;;;12.77;7.65;;;21.30;64.40;;;;;;5114043;28;20096;-15
2022/10/09 08:17:24;;;;;;;13.02;7.88;;;21.40;65.40;;;;;;5113629;28;20023;-15
2022/10/09 08:19:51;;;;;;;13.10;7.28;;;21.60;65.10;;;;;;5113783;28;20024;-15
2022/10/09 08:22:17;;;;;;;12.00;7.28;;;21.80;64.40;;;;;;5113901;28;20035;-14
2022/10/09 08:24:43;;;;;;;12.52;7.63;;;21.90;63.90;;;;;;5113677;28;20027;-15
2022/10/09 08:27:09;;;;;;;12.35;7.28;;;21.70;64.50;;;;;;5113563;28;20024;-14
2022/10/09 08:29:35;;;;;;;10.43;7.60;;;21.80;64.90;;;;;;5113433;28;20139;-14
2022/10/09 08:32:01;;;;;;;11.20;7.40;;;21.90;63.70;;;;;;5113876;28;20134;-14
2022/10/09 08:34:27;;;;;;;11.60;7.78;;;22.00;64.00;;;;;;5113570;28;20056;-15
2022/10/09 08:36:53;;;;;;;13.90;8.20;;;22.00;63.30;;;;;;5113229;28;20157;-15
2022/10/09 08:39:19;;;;;;;12.70;7.45;;;21.90;63.60;;;;;;5112019;28;20107;-14
2022/10/09 08:41:53;;;;;;;10.70;7.10;;;21.80;63.50;;;;;;5095460;28;20023;-13
2022/10/09 08:44:27;;;;;;;12.77;7.32;;;21.80;65.00;;;;;;5113700;28;20027;-14
2022/10/09 08:47:02;;;;;;;10.75;6.97;;;22.00;64.30;;;;;;5113171;28;20383;-14
2022/10/09 08:49:40;;;;;;;10.63;7.55;;;22.10;64.30;;;;;;5113287;28;20115;-14
2022/10/09 08:52:29;;;;;;;11.55;7.00;;;22.20;63.90;;;;;;5113630;28;20028;-14
2022/10/09 08:54:59;;;;;;;11.88;7.00;;;22.40;64.40;;;;;;5113069;28;20028;-14
2022/10/09 08:57:30;;;;;;;12.43;6.93;;;22.50;62.80;;;;;;5113328;28;20016;-13
2022/10/09 08:59:56;;;;;;;9.63;7.00;;;22.50;62.40;;;;;;5113192;28;20030;-13
2022/10/09 09:02:53;;;;;;;10.70;7.03;;;22.60;61.70;;;;;;5113472;28;20023;-15
2022/10/09 09:05:52;;;;;;;11.93;6.32;;;22.90;60.80;;;;;;5113208;28;20030;-14
2022/10/09 09:08:21;;;;;;;13.88;6.53;;;23.20;60.10;;;;;;5030353;28;20084;-15
2022/10/09 09:10:51;;;;;;;10.75;6.18;;;23.30;60.20;;;;;;5030455;28;20041;-15
2022/10/09 09:13:29;;;;;;;11.25;6.20;;;23.40;59.50;;;;;;5031858;28;20091;-15
2022/10/09 09:16:08;;;;;;;11.57;6.57;;;23.50;58.00;;;;;;5034245;28;20035;-14
2022/10/09 09:19:04;;;;;;;10.20;6.43;;;23.80;58.10;;;;;;5034244;28;20030;-14
2022/10/09 09:21:51;;;;;;;10.70;6.30;;;23.90;57.10;;;;;;5034145;28;20057;-14
2022/10/09 09:24:39;;;;;;;12.48;6.15;;;24.10;57.00;;;;;;5034051;28;20026;-14
2022/10/09 09:27:33;;;;;;;7.95;5.85;;;24.20;56.10;;;;;;5034141;28;20029;-15
2022/10/09 09:30:22;;;;;;;10.60;5.93;;;24.30;54.80;;;;;;5017363;28;20038;-14
2022/10/09 09:33:00;;;;;;;10.05;6.32;;;24.50;56.70;;;;;;5033960;28;20042;-14
2022/10/09 09:36:06;;;;;;;9.77;6.38;;;24.70;53.00;;;;;;5034327;28;20527;-13
2022/10/09 09:38:32;;;;;;;13.02;6.00;;;24.70;52.60;;;;;;5025722;28;20037;-14
2022/10/09 09:40:58;;;;;;;10.00;5.97;;;24.90;54.10;;;;;;5033610;28;20405;-14
2022/10/09 09:43:25;;;;;;;8.80;5.72;;;25.20;54.40;;;;;;5033799;28;20087;-14
2022/10/09 09:45:54;;;;;;;9.40;5.70;;;25.40;52.60;;;;;;5090919;28;20375;-15
2022/10/09 09:48:34;;;;;;;10.55;5.90;;;25.40;52.00;;;;;;5116587;28;20035;-14
2022/10/09 09:51:06;;;;;;;12.20;6.00;;;25.50;50.50;;;;;;5116440;28;20050;-14
2022/10/09 09:53:41;;;;;;;8.63;5.63;;;25.70;51.60;;;;;;5116480;28;20020;-15
2022/10/09 09:56:08;;;;;;;11.02;5.90;;;25.80;51.40;;;;;;5116251;28;20531;-14
2022/10/09 09:58:54;;;;;;;9.23;4.95;;;25.80;50.10;;;;;;5116060;28;20043;-15
2022/10/09 10:01:29;;;;;;;8.70;5.20;;;25.90;49.50;;;;;;5115316;28;20098;-15
2022/10/09 10:03:58;;;;;;;12.55;5.50;;;26.00;49.50;;;;;;5114795;28;20509;-15
2022/10/09 10:06:27;;;;;;;7.68;4.78;;;26.30;47.20;;;;;;5115921;28;20031;-15
2022/10/09 10:09:04;;;;;;;9.80;4.95;;;26.40;48.30;;;;;;5114231;28;20035;-15
2022/10/09 10:11:32;;;;;;;9.52;5.40;;;26.70;47.70;;;;;;5116199;28;20089;-13
2022/10/09 10:14:05;;;;;;;8.55;4.95;;;26.70;47.50;;;;;;5116142;28;20063;-15
2022/10/09 10:16:36;;;;;;;8.38;5.30;;;26.40;47.00;;;;;;5116128;28;20110;-15
2022/10/09 10:19:03;;;;;;;7.65;5.20;;;26.20;47.10;;;;;;5115690;28;20035;-14
2022/10/09 10:21:40;;;;;;;9.68;5.28;;;26.30;47.10;;;;;;5116341;28;20103;-15
2022/10/09 10:24:14;;;;;;;9.65;5.70;;;26.40;47.20;;;;;;5115497;28;20425;-15
2022/10/09 10:26:50;;;;;;;8.38;5.38;;;26.40;46.40;;;;;;5115658;28;20055;-14
2022/10/09 10:29:24;;;;;;;8.82;5.00;;;26.60;46.30;;;;;;5115811;28;20080;-15
2022/10/09 10:32:01;;;;;;;7.82;5.20;;;27.00;45.80;;;;;;5115563;28;20028;-14
2022/10/09 10:34:32;;;;;;;9.18;5.50;;;27.20;45.90;;;;;;5115313;28;20044;-14
2022/10/09 10:37:25;;;;;;;14.77;5.53;;;27.40;45.10;;;;;;5115212;28;20505;-14
2022/10/09 10:40:26;;;;;;;9.43;5.32;;;27.60;43.30;;;;;;5115397;28;20019;-13
2022/10/09 10:43:15;;;;;;;9.23;5.70;;;28.00;42.80;;;;;;5032429;28;20171;-14
2022/10/09 10:45:47;;;;;;;9.02;5.40;;;27.80;42.20;;;;;;5032716;28;20026;-14
2022/10/09 10:48:29;;;;;;;10.27;5.45;;;27.10;44.40;;;;;;5032496;28;20029;-15
2022/10/09 10:51:03;;;;;;;8.95;5.05;;;27.20;46.70;;;;;;5032381;28;20084;-13
2022/10/09 10:53:44;;;;;;;10.20;5.15;;;27.60;45.90;;;;;;5032554;28;20192;-14
2022/10/09 10:56:29;;;;;;;8.15;5.20;;;28.00;43.70;;;;;;5032424;28;20508;-14
2022/10/09 10:59:13;;;;;;;10.57;5.25;;;27.90;43.60;;;;;;5032260;28;20037;-15
2022/10/09 11:02:08;;;;;;;8.65;5.32;;;27.40;42.50;;;;;;5032354;28;20041;-15
2022/10/09 11:04:58;;;;;;;6.57;4.93;;;27.10;45.00;;;;;;5030608;28;20026;-15
2022/10/09 11:07:38;;;;;;;7.97;4.95;;;26.80;44.80;;;;;;5033012;28;20060;-15
2022/10/09 11:10:32;;;;;;;9.07;5.10;;;26.70;45.20;;;;;;5032454;28;20492;-14
2022/10/09 11:13:03;;;;;;;8.18;5.30;;;26.80;45.70;;;;;;5031901;28;20567;-14
2022/10/09 11:15:47;;;;;;;9.70;5.13;;;26.90;46.70;;;;;;5032113;28;20516;-14
2022/10/09 11:18:34;;;;;;;9.82;5.30;;;27.00;43.30;;;;;;5067208;28;20027;-14
2022/10/09 11:21:16;;;;;;;10.20;5.55;;;26.90;44.80;;;;;;5114166;28;20020;-14
2022/10/09 11:24:15;;;;;;;9.30;5.25;;;26.90;44.10;;;;;;5115333;28;20071;-14
2022/10/09 11:26:57;;;;;;;13.02;5.50;;;27.00;44.70;;;;;;5115619;28;20020;-14
2022/10/09 11:29:29;;;;;;;7.68;4.63;;;26.80;45.00;;;;;;5114485;28;20035;-14
2022/10/09 11:31:58;;;;;;;;;;;27.00;45.30;;;;;;5114807;28;20028;-14
2022/10/09 11:34:40;;;;;;;10.60;5.03;;;27.30;43.10;;;;;;5114160;28;19916;-14
2022/10/09 11:37:19;;;;;;;10.73;5.10;;;27.40;45.00;;;;;;5114296;28;20164;-14
2022/10/09 11:39:45;;;;;;;7.22;4.85;;;27.80;42.90;;;;;;5114173;28;20023;-14
2022/10/09 11:42:16;;;;;;;12.43;5.55;;;27.60;43.10;;;;;;5114487;28;20068;-15
2022/10/09 11:45:15;;;;;;;9.30;5.25;;;27.50;44.40;;;;;;5114307;28;20070;-15
2022/10/09 11:47:56;;;;;;;9.13;4.78;;;27.40;44.90;;;;;;5114040;28;20248;-14
2022/10/09 11:51:03;;;;;;;8.43;5.03;;;27.50;43.90;;;;;;5114230;28;20023;-14
2022/10/09 11:53:33;;;;;;;10.15;5.80;;;28.10;41.80;;;;;;5113956;28;20478;-14
2022/10/09 11:56:19;;;;;;;11.82;5.63;;;28.80;40.80;;;;;;5114676;28;20024;-14
2022/10/09 11:59:17;;;;;;;8.27;5.13;;;29.00;41.60;;;;;;5114096;28;20028;-14
2022/10/09 12:01:44;;;;;;;9.43;5.30;;;29.20;40.70;;;;;;5113603;28;20529;-14
2022/10/09 12:04:14;;;;;;;9.25;5.68;;;29.10;40.40;;;;;;5114080;28;20046;-14
2022/10/09 12:06:56;;;;;;;11.52;6.00;;;28.50;40.70;;;;;;5113747;28;20035;-14
2022/10/09 12:09:44;;;;;;;9.68;5.82;;;28.20;41.10;;;;;;5113634;28;20034;-14
2022/10/09 12:12:16;;;;;;;8.52;5.35;;;27.70;41.90;;;;;;5114129;28;20035;-14
2022/10/09 12:14:45;;;;;;;11.45;5.95;;;27.00;43.80;;;;;;5113863;28;20077;-15
2022/10/09 12:17:37;;;;;;;14.25;5.80;;;26.70;44.90;;;;;;5113807;28;20031;-14
2022/10/09 12:20:29;;;;;;;9.90;6.10;;;26.30;44.50;;;;;;5104299;28;20055;-14
2022/10/09 12:23:00;;;;;;;11.43;5.70;;;25.90;45.90;;;;;;5109593;28;20040;-15
2022/10/09 12:25:39;;;;;;;10.25;6.07;;;26.00;45.70;;;;;;5113811;28;20015;-15
2022/10/09 12:28:15;;;;;;;12.77;5.78;;;25.90;46.40;;;;;;5113818;28;20036;-15
2022/10/09 12:30:45;;;;;;;10.05;5.38;;;25.80;46.80;;;;;;5114155;28;20370;-15
2022/10/09 12:33:19;;;;;;;11.23;5.35;;;26.30;46.30;;;;;;5113384;28;20016;-14
2022/10/09 12:35:55;;;;;;;7.70;5.40;;;26.90;45.40;;;;;;5113292;28;20079;-14
2022/10/09 12:38:25;;;;;;;8.18;5.18;;;27.60;43.50;;;;;;5114237;28;20034;-15
2022/10/09 12:40:53;;;;;;;11.43;5.78;;;28.20;42.90;;;;;;5113791;28;20020;-15
2022/10/09 12:43:21;;;;;;;10.50;5.57;;;28.70;42.90;;;;;;5113385;28;20031;-14
2022/10/09 12:45:49;;;;;;;10.07;5.70;;;28.70;41.90;;;;;;5113402;28;20024;-15
2022/10/09 12:48:21;;;;;;;11.45;5.47;;;28.40;42.30;;;;;;5114456;28;20050;-14
2022/10/09 12:50:48;;;;;;;10.23;5.50;;;28.40;42.20;;;;;;5117470;28;20140;-14
2022/10/09 12:53:18;;;;;;;8.40;5.80;;;28.10;42.40;;;;;;5117376;28;20019;-15
2022/10/09 12:55:47;;;;;;;10.75;5.65;;;27.90;42.50;;;;;;5117356;28;20027;-15